This is the latest recevied weather packets stored in our database for station/object XE2OR-10. If no packets are shown the sender has not sent any weather packets the latest 10 day(s).
| Time | Temp. | Humidity | Pressure | Rain* | Wind** | Luminosity | Snow |
|---|---|---|---|---|---|---|---|
| 1777912429 | 26.11° C | 73% | 1017.9 hPa | 0 mm | - | 688 W/m² | - |
| 1777912129 | 25.56° C | 73% | 1017.6 hPa | 0 mm | - | 748 W/m² | - |
| 1777911833 | 25.56° C | 73% | 1017.7 hPa | 0 mm | - | 835 W/m² | - |
| 1777911529 | 25° C | 74% | 1017.6 hPa | 0 mm | - | 850 W/m² | - |
| 1777911233 | 25.56° C | 74% | 1017.7 hPa | 0 mm | - | 802 W/m² | - |
| 1777910929 | 25° C | 75% | 1017.7 hPa | 0 mm | - | 812 W/m² | - |
| 1777910629 | 24.44° C | 75% | 1017.6 hPa | 0 mm | - | 771 W/m² | - |
| 1777910329 | 24.44° C | 76% | 1017.8 hPa | 0 mm | - | 749 W/m² | - |
| 1777910032 | 24.44° C | 76% | 1018 hPa | 0 mm | - | 737 W/m² | - |
| 1777909729 | 23.89° C | 77% | 1017.7 hPa | 0 mm | - | 795 W/m² | - |
| 1777909432 | 23.89° C | 78% | 1017.7 hPa | 0 mm | - | 721 W/m² | - |
| 1777909129 | 23.89° C | 78% | 1017.9 hPa | 0 mm | - | 627 W/m² | - |
| 1777908829 | 23.33° C | 78% | 1017.9 hPa | 0 mm | - | 664 W/m² | - |
| 1777908529 | 23.33° C | 79% | 1018 hPa | 0 mm | - | 374 W/m² | - |
| 1777908233 | 22.78° C | 79% | 1017.9 hPa | 0 mm | - | 433 W/m² | - |
| 1777907929 | 22.22° C | 80% | 1017.8 hPa | 0 mm | - | 395 W/m² | - |
| 1777907633 | 22.78° C | 80% | 1017.9 hPa | 0 mm | - | 274 W/m² | - |
| 1777907329 | 22.78° C | 79% | 1018 hPa | 0 mm | - | 454 W/m² | - |
| 1777907029 | 22.78° C | 80% | 1017.9 hPa | 0 mm | - | 548 W/m² | - |
| 1777906729 | 22.22° C | 81% | 1017.8 hPa | 0 mm | - | 557 W/m² | - |
| 1777906433 | 21.67° C | 81% | 1018 hPa | 0 mm | - | 309 W/m² | - |
| 1777906129 | 22.22° C | 81% | 1018.1 hPa | 0 mm | - | 338 W/m² | - |
| 1777905832 | 21.67° C | 81% | 1018.2 hPa | 0 mm | - | 296 W/m² | - |
| 1777905529 | 21.11° C | 82% | 1017.8 hPa | 0 mm | - | 270 W/m² | - |
| 1777905228 | 21.11° C | 82% | 1018.2 hPa | 0 mm | - | 177 W/m² | - |
* Rain latest hour (hover to see other rain measurements)
** Current wind speed in m/s (hover to see current wind gust speed)